sensor_id;sensor_type;location;lat;lon;timestamp;P1;durP1;ratioP1;P2;durP2;ratioP2
5418;SDS011;2732;52.092;11.556;2022-10-31T00:04:33;10.83;;;6.03;;
5418;SDS011;2732;52.092;11.556;2022-10-31T00:09:33;9.80;;;5.50;;
5418;SDS011;2732;52.092;11.556;2022-10-31T00:14:34;9.50;;;5.10;;
5418;SDS011;2732;52.092;11.556;2022-10-31T00:19:35;13.50;;;5.37;;
5418;SDS011;2732;52.092;11.556;2022-10-31T00:24:35;16.30;;;5.20;;
5418;SDS011;2732;52.092;11.556;2022-10-31T00:29:36;13.50;;;5.90;;
5418;SDS011;2732;52.092;11.556;2022-10-31T00:34:37;9.63;;;6.20;;
5418;SDS011;2732;52.092;11.556;2022-10-31T00:39:37;8.70;;;5.57;;
5418;SDS011;2732;52.092;11.556;2022-10-31T00:44:38;15.00;;;5.43;;
5418;SDS011;2732;52.092;11.556;2022-10-31T00:49:38;9.83;;;4.97;;
5418;SDS011;2732;52.092;11.556;2022-10-31T00:54:39;12.30;;;5.23;;
5418;SDS011;2732;52.092;11.556;2022-10-31T00:59:40;13.43;;;4.97;;
5418;SDS011;2732;52.092;11.556;2022-10-31T01:04:40;6.80;;;3.80;;
5418;SDS011;2732;52.092;11.556;2022-10-31T01:09:41;11.47;;;4.27;;
5418;SDS011;2732;52.092;11.556;2022-10-31T01:14:42;8.00;;;4.33;;
5418;SDS011;2732;52.092;11.556;2022-10-31T01:19:44;8.50;;;4.23;;
5418;SDS011;2732;52.092;11.556;2022-10-31T01:24:45;11.67;;;5.13;;
5418;SDS011;2732;52.092;11.556;2022-10-31T01:29:46;10.40;;;4.20;;
5418;SDS011;2732;52.092;11.556;2022-10-31T01:34:46;11.30;;;4.40;;
5418;SDS011;2732;52.092;11.556;2022-10-31T01:39:50;10.20;;;4.20;;
5418;SDS011;2732;52.092;11.556;2022-10-31T01:44:52;7.63;;;4.20;;
5418;SDS011;2732;52.092;11.556;2022-10-31T01:50:00;10.67;;;3.70;;
5418;SDS011;2732;52.092;11.556;2022-10-31T01:55:10;5.23;;;4.00;;
5418;SDS011;2732;52.092;11.556;2022-10-31T02:00:17;10.93;;;4.10;;
5418;SDS011;2732;52.092;11.556;2022-10-31T02:05:20;9.40;;;4.63;;
5418;SDS011;2732;52.092;11.556;2022-10-31T02:10:25;10.13;;;4.57;;
5418;SDS011;2732;52.092;11.556;2022-10-31T02:15:27;8.93;;;5.20;;
5418;SDS011;2732;52.092;11.556;2022-10-31T02:20:37;10.43;;;4.80;;
5418;SDS011;2732;52.092;11.556;2022-10-31T02:26:08;9.80;;;5.20;;
5418;SDS011;2732;52.092;11.556;2022-10-31T02:41:58;10.83;;;4.40;;
5418;SDS011;2732;52.092;11.556;2022-10-31T02:47:14;9.37;;;5.50;;
5418;SDS011;2732;52.092;11.556;2022-10-31T02:52:22;6.67;;;4.63;;
5418;SDS011;2732;52.092;11.556;2022-10-31T02:57:30;13.90;;;5.13;;
5418;SDS011;2732;52.092;11.556;2022-10-31T03:02:43;9.27;;;6.10;;
5418;SDS011;2732;52.092;11.556;2022-10-31T03:19:04;9.23;;;4.60;;
5418;SDS011;2732;52.092;11.556;2022-10-31T03:24:12;7.10;;;4.53;;
5418;SDS011;2732;52.092;11.556;2022-10-31T03:29:15;10.87;;;5.57;;
5418;SDS011;2732;52.092;11.556;2022-10-31T03:34:20;13.43;;;6.43;;
5418;SDS011;2732;52.092;11.556;2022-10-31T03:39:21;10.73;;;5.60;;
5418;SDS011;2732;52.092;11.556;2022-10-31T03:44:23;8.20;;;5.83;;
5418;SDS011;2732;52.092;11.556;2022-10-31T03:49:26;8.50;;;5.63;;
5418;SDS011;2732;52.092;11.556;2022-10-31T03:54:46;13.80;;;6.30;;
5418;SDS011;2732;52.092;11.556;2022-10-31T04:00:06;13.60;;;6.57;;
5418;SDS011;2732;52.092;11.556;2022-10-31T04:05:11;8.57;;;5.30;;
5418;SDS011;2732;52.092;11.556;2022-10-31T04:10:15;8.50;;;5.50;;
5418;SDS011;2732;52.092;11.556;2022-10-31T04:15:17;7.13;;;5.97;;
5418;SDS011;2732;52.092;11.556;2022-10-31T04:20:28;10.97;;;5.40;;
5418;SDS011;2732;52.092;11.556;2022-10-31T04:25:34;12.23;;;5.87;;
5418;SDS011;2732;52.092;11.556;2022-10-31T04:30:35;8.07;;;5.23;;
5418;SDS011;2732;52.092;11.556;2022-10-31T04:35:36;16.27;;;6.00;;
5418;SDS011;2732;52.092;11.556;2022-10-31T04:40:36;16.33;;;6.30;;
5418;SDS011;2732;52.092;11.556;2022-10-31T04:45:37;12.07;;;6.40;;
5418;SDS011;2732;52.092;11.556;2022-10-31T04:50:38;18.03;;;6.60;;
5418;SDS011;2732;52.092;11.556;2022-10-31T04:55:38;11.17;;;6.73;;
5418;SDS011;2732;52.092;11.556;2022-10-31T05:00:39;15.17;;;7.90;;
5418;SDS011;2732;52.092;11.556;2022-10-31T05:05:41;16.17;;;7.93;;
5418;SDS011;2732;52.092;11.556;2022-10-31T05:10:41;34.63;;;13.50;;
5418;SDS011;2732;52.092;11.556;2022-10-31T05:15:42;51.70;;;19.90;;
5418;SDS011;2732;52.092;11.556;2022-10-31T05:20:43;59.13;;;23.83;;
5418;SDS011;2732;52.092;11.556;2022-10-31T05:25:43;70.83;;;26.97;;
5418;SDS011;2732;52.092;11.556;2022-10-31T05:30:44;66.73;;;26.77;;
5418;SDS011;2732;52.092;11.556;2022-10-31T05:35:44;68.20;;;25.90;;
5418;SDS011;2732;52.092;11.556;2022-10-31T05:40:45;103.63;;;35.47;;
5418;SDS011;2732;52.092;11.556;2022-10-31T05:45:46;135.17;;;43.37;;
5418;SDS011;2732;52.092;11.556;2022-10-31T05:50:49;192.90;;;53.43;;
5418;SDS011;2732;52.092;11.556;2022-10-31T05:55:50;173.30;;;49.07;;
5418;SDS011;2732;52.092;11.556;2022-10-31T06:00:51;160.70;;;48.70;;
5418;SDS011;2732;52.092;11.556;2022-10-31T06:05:53;186.67;;;52.60;;
5418;SDS011;2732;52.092;11.556;2022-10-31T06:10:53;168.23;;;46.77;;
5418;SDS011;2732;52.092;11.556;2022-10-31T06:15:54;165.33;;;48.23;;
5418;SDS011;2732;52.092;11.556;2022-10-31T06:20:55;189.83;;;54.20;;
5418;SDS011;2732;52.092;11.556;2022-10-31T06:25:56;205.57;;;54.70;;
5418;SDS011;2732;52.092;11.556;2022-10-31T06:30:56;186.57;;;49.40;;
5418;SDS011;2732;52.092;11.556;2022-10-31T06:35:57;173.77;;;49.90;;
5418;SDS011;2732;52.092;11.556;2022-10-31T06:40:57;198.10;;;51.50;;
5418;SDS011;2732;52.092;11.556;2022-10-31T06:46:04;259.73;;;58.93;;
5418;SDS011;2732;52.092;11.556;2022-10-31T06:51:05;304.83;;;66.37;;
5418;SDS011;2732;52.092;11.556;2022-10-31T06:56:06;261.77;;;62.40;;
5418;SDS011;2732;52.092;11.556;2022-10-31T07:01:07;234.33;;;55.43;;
5418;SDS011;2732;52.092;11.556;2022-10-31T07:06:07;245.03;;;58.17;;
5418;SDS011;2732;52.092;11.556;2022-10-31T07:11:08;276.57;;;63.60;;
5418;SDS011;2732;52.092;11.556;2022-10-31T07:16:08;197.20;;;52.23;;
5418;SDS011;2732;52.092;11.556;2022-10-31T07:21:11;235.87;;;58.37;;
5418;SDS011;2732;52.092;11.556;2022-10-31T07:26:12;226.20;;;57.20;;
5418;SDS011;2732;52.092;11.556;2022-10-31T07:31:13;209.67;;;54.40;;
5418;SDS011;2732;52.092;11.556;2022-10-31T07:36:13;258.83;;;62.90;;
5418;SDS011;2732;52.092;11.556;2022-10-31T07:41:14;241.80;;;61.33;;
5418;SDS011;2732;52.092;11.556;2022-10-31T07:46:15;213.33;;;57.37;;
5418;SDS011;2732;52.092;11.556;2022-10-31T07:51:15;218.93;;;57.40;;
5418;SDS011;2732;52.092;11.556;2022-10-31T07:56:16;241.97;;;61.70;;
5418;SDS011;2732;52.092;11.556;2022-10-31T08:01:17;230.13;;;59.33;;
5418;SDS011;2732;52.092;11.556;2022-10-31T08:06:17;217.00;;;57.73;;
5418;SDS011;2732;52.092;11.556;2022-10-31T08:11:19;193.83;;;53.07;;
5418;SDS011;2732;52.092;11.556;2022-10-31T08:16:20;174.20;;;49.50;;
5418;SDS011;2732;52.092;11.556;2022-10-31T08:21:21;149.87;;;48.40;;
5418;SDS011;2732;52.092;11.556;2022-10-31T08:26:22;155.60;;;48.77;;
5418;SDS011;2732;52.092;11.556;2022-10-31T08:31:23;145.27;;;45.80;;
5418;SDS011;2732;52.092;11.556;2022-10-31T08:36:26;144.93;;;45.57;;
5418;SDS011;2732;52.092;11.556;2022-10-31T08:41:28;120.00;;;43.70;;
5418;SDS011;2732;52.092;11.556;2022-10-31T08:46:29;117.20;;;42.90;;
5418;SDS011;2732;52.092;11.556;2022-10-31T08:51:31;141.33;;;41.90;;
5418;SDS011;2732;52.092;11.556;2022-10-31T08:56:32;133.73;;;44.97;;
5418;SDS011;2732;52.092;11.556;2022-10-31T09:01:33;106.47;;;41.50;;
5418;SDS011;2732;52.092;11.556;2022-10-31T09:06:33;95.80;;;36.57;;
5418;SDS011;2732;52.092;11.556;2022-10-31T09:11:34;112.53;;;38.60;;
5418;SDS011;2732;52.092;11.556;2022-10-31T09:16:34;87.33;;;35.13;;
5418;SDS011;2732;52.092;11.556;2022-10-31T09:21:35;95.77;;;36.50;;
5418;SDS011;2732;52.092;11.556;2022-10-31T09:26:36;89.40;;;37.00;;
5418;SDS011;2732;52.092;11.556;2022-10-31T09:31:36;100.30;;;37.57;;
5418;SDS011;2732;52.092;11.556;2022-10-31T09:36:37;92.10;;;37.00;;
5418;SDS011;2732;52.092;11.556;2022-10-31T09:47:43;109.47;;;37.33;;
5418;SDS011;2732;52.092;11.556;2022-10-31T09:58:18;109.47;;;38.90;;
5418;SDS011;2732;52.092;11.556;2022-10-31T10:08:43;89.73;;;38.20;;
5418;SDS011;2732;52.092;11.556;2022-10-31T10:30:21;90.07;;;36.37;;
5418;SDS011;2732;52.092;11.556;2022-10-31T10:40:41;78.17;;;33.30;;
5418;SDS011;2732;52.092;11.556;2022-10-31T10:45:43;75.43;;;34.90;;
5418;SDS011;2732;52.092;11.556;2022-10-31T10:51:08;84.57;;;35.47;;
5418;SDS011;2732;52.092;11.556;2022-10-31T11:01:29;84.93;;;34.43;;
5418;SDS011;2732;52.092;11.556;2022-10-31T11:06:30;80.27;;;35.43;;
5418;SDS011;2732;52.092;11.556;2022-10-31T11:11:31;93.13;;;35.77;;
5418;SDS011;2732;52.092;11.556;2022-10-31T11:16:33;84.37;;;35.90;;
5418;SDS011;2732;52.092;11.556;2022-10-31T11:21:41;78.27;;;36.37;;
5418;SDS011;2732;52.092;11.556;2022-10-31T11:26:45;91.83;;;36.30;;
5418;SDS011;2732;52.092;11.556;2022-10-31T11:31:50;85.00;;;34.20;;
5418;SDS011;2732;52.092;11.556;2022-10-31T11:36:53;77.47;;;34.53;;
5418;SDS011;2732;52.092;11.556;2022-10-31T11:41:54;77.13;;;35.23;;
5418;SDS011;2732;52.092;11.556;2022-10-31T11:47:01;81.50;;;35.80;;
5418;SDS011;2732;52.092;11.556;2022-10-31T11:52:05;84.17;;;35.03;;
5418;SDS011;2732;52.092;11.556;2022-10-31T11:57:22;72.33;;;33.70;;
5418;SDS011;2732;52.092;11.556;2022-10-31T12:02:30;81.30;;;35.83;;
5418;SDS011;2732;52.092;11.556;2022-10-31T12:07:31;76.93;;;35.07;;
5418;SDS011;2732;52.092;11.556;2022-10-31T12:12:34;79.10;;;34.70;;
5418;SDS011;2732;52.092;11.556;2022-10-31T12:39:44;78.90;;;35.77;;
5418;SDS011;2732;52.092;11.556;2022-10-31T12:50:47;86.60;;;35.33;;
5418;SDS011;2732;52.092;11.556;2022-10-31T12:56:23;85.20;;;37.37;;
5418;SDS011;2732;52.092;11.556;2022-10-31T13:01:46;72.80;;;34.10;;
5418;SDS011;2732;52.092;11.556;2022-10-31T13:06:54;73.40;;;33.40;;
5418;SDS011;2732;52.092;11.556;2022-10-31T13:12:02;76.30;;;36.67;;
5418;SDS011;2732;52.092;11.556;2022-10-31T13:17:20;72.20;;;32.63;;
5418;SDS011;2732;52.092;11.556;2022-10-31T13:22:29;76.60;;;35.10;;
5418;SDS011;2732;52.092;11.556;2022-10-31T13:32:55;80.80;;;33.40;;
5418;SDS011;2732;52.092;11.556;2022-10-31T13:38:17;80.10;;;35.77;;
5418;SDS011;2732;52.092;11.556;2022-10-31T13:54:34;81.53;;;35.47;;
5418;SDS011;2732;52.092;11.556;2022-10-31T13:59:37;90.93;;;36.73;;
5418;SDS011;2732;52.092;11.556;2022-10-31T14:04:38;91.90;;;35.07;;
5418;SDS011;2732;52.092;11.556;2022-10-31T14:10:02;75.73;;;34.10;;
5418;SDS011;2732;52.092;11.556;2022-10-31T14:15:12;80.93;;;36.00;;
5418;SDS011;2732;52.092;11.556;2022-10-31T14:20:45;86.60;;;36.07;;
5418;SDS011;2732;52.092;11.556;2022-10-31T14:25:45;74.83;;;32.23;;
5418;SDS011;2732;52.092;11.556;2022-10-31T14:30:53;72.07;;;34.40;;
5418;SDS011;2732;52.092;11.556;2022-10-31T14:36:36;95.50;;;37.80;;
5418;SDS011;2732;52.092;11.556;2022-10-31T14:41:43;96.30;;;36.37;;
5418;SDS011;2732;52.092;11.556;2022-10-31T14:47:09;111.23;;;40.33;;
5418;SDS011;2732;52.092;11.556;2022-10-31T14:52:36;117.63;;;41.50;;
5418;SDS011;2732;52.092;11.556;2022-10-31T14:57:38;103.17;;;40.70;;
5418;SDS011;2732;52.092;11.556;2022-10-31T15:24:05;98.13;;;39.93;;
5418;SDS011;2732;52.092;11.556;2022-10-31T15:29:13;81.73;;;33.17;;
5418;SDS011;2732;52.092;11.556;2022-10-31T15:34:25;78.37;;;32.70;;
5418;SDS011;2732;52.092;11.556;2022-10-31T15:39:38;109.67;;;35.03;;
5418;SDS011;2732;52.092;11.556;2022-10-31T15:44:40;83.03;;;33.33;;
5418;SDS011;2732;52.092;11.556;2022-10-31T15:49:46;145.03;;;36.70;;
5418;SDS011;2732;52.092;11.556;2022-10-31T15:55:14;122.00;;;37.90;;
5418;SDS011;2732;52.092;11.556;2022-10-31T16:00:36;89.73;;;38.27;;
5418;SDS011;2732;52.092;11.556;2022-10-31T16:05:44;116.90;;;39.03;;
5418;SDS011;2732;52.092;11.556;2022-10-31T16:10:46;120.57;;;38.70;;
5418;SDS011;2732;52.092;11.556;2022-10-31T16:15:51;133.83;;;38.87;;
5418;SDS011;2732;52.092;11.556;2022-10-31T16:20:57;108.73;;;37.80;;
5418;SDS011;2732;52.092;11.556;2022-10-31T16:25:58;113.03;;;37.00;;
5418;SDS011;2732;52.092;11.556;2022-10-31T16:30:59;115.70;;;49.63;;
5418;SDS011;2732;52.092;11.556;2022-10-31T16:35:59;128.20;;;37.93;;
5418;SDS011;2732;52.092;11.556;2022-10-31T16:41:03;105.53;;;43.80;;
5418;SDS011;2732;52.092;11.556;2022-10-31T16:46:04;79.83;;;34.60;;
5418;SDS011;2732;52.092;11.556;2022-10-31T16:51:06;96.10;;;38.70;;
5418;SDS011;2732;52.092;11.556;2022-10-31T16:56:32;184.93;;;40.87;;
5418;SDS011;2732;52.092;11.556;2022-10-31T17:01:33;281.00;;;48.10;;
5418;SDS011;2732;52.092;11.556;2022-10-31T17:06:35;136.07;;;51.07;;
5418;SDS011;2732;52.092;11.556;2022-10-31T17:11:35;242.93;;;68.77;;
5418;SDS011;2732;52.092;11.556;2022-10-31T17:16:41;157.30;;;42.57;;
5418;SDS011;2732;52.092;11.556;2022-10-31T17:21:42;115.90;;;41.23;;
5418;SDS011;2732;52.092;11.556;2022-10-31T17:26:42;126.70;;;37.30;;
5418;SDS011;2732;52.092;11.556;2022-10-31T17:31:43;166.13;;;42.77;;
5418;SDS011;2732;52.092;11.556;2022-10-31T17:36:48;221.27;;;45.60;;
5418;SDS011;2732;52.092;11.556;2022-10-31T17:41:50;446.63;;;49.23;;
5418;SDS011;2732;52.092;11.556;2022-10-31T17:46:51;255.13;;;47.87;;
5418;SDS011;2732;52.092;11.556;2022-10-31T17:51:52;214.93;;;37.13;;
5418;SDS011;2732;52.092;11.556;2022-10-31T17:56:53;251.53;;;41.27;;
5418;SDS011;2732;52.092;11.556;2022-10-31T18:01:53;135.97;;;47.83;;
5418;SDS011;2732;52.092;11.556;2022-10-31T18:06:56;259.10;;;43.17;;
5418;SDS011;2732;52.092;11.556;2022-10-31T18:11:56;150.03;;;40.70;;
5418;SDS011;2732;52.092;11.556;2022-10-31T18:16:57;181.60;;;41.97;;
5418;SDS011;2732;52.092;11.556;2022-10-31T18:21:58;395.53;;;44.20;;
5418;SDS011;2732;52.092;11.556;2022-10-31T18:26:58;271.63;;;41.47;;
5418;SDS011;2732;52.092;11.556;2022-10-31T18:31:59;312.40;;;40.47;;
5418;SDS011;2732;52.092;11.556;2022-10-31T18:37:00;262.27;;;37.07;;
5418;SDS011;2732;52.092;11.556;2022-10-31T18:42:00;244.67;;;35.90;;
5418;SDS011;2732;52.092;11.556;2022-10-31T18:47:01;217.70;;;34.43;;
5418;SDS011;2732;52.092;11.556;2022-10-31T18:52:03;225.97;;;34.00;;
5418;SDS011;2732;52.092;11.556;2022-10-31T18:57:04;217.23;;;33.17;;
5418;SDS011;2732;52.092;11.556;2022-10-31T19:02:05;153.30;;;43.83;;
5418;SDS011;2732;52.092;11.556;2022-10-31T19:07:05;90.33;;;38.23;;
5418;SDS011;2732;52.092;11.556;2022-10-31T19:12:06;114.27;;;38.87;;
5418;SDS011;2732;52.092;11.556;2022-10-31T19:17:07;146.10;;;36.97;;
5418;SDS011;2732;52.092;11.556;2022-10-31T19:22:07;126.53;;;42.20;;
5418;SDS011;2732;52.092;11.556;2022-10-31T19:27:08;92.90;;;39.13;;
5418;SDS011;2732;52.092;11.556;2022-10-31T19:32:09;109.07;;;39.10;;
5418;SDS011;2732;52.092;11.556;2022-10-31T19:37:10;138.53;;;42.40;;
5418;SDS011;2732;52.092;11.556;2022-10-31T19:42:11;148.03;;;56.67;;
5418;SDS011;2732;52.092;11.556;2022-10-31T19:47:11;90.90;;;39.97;;
5418;SDS011;2732;52.092;11.556;2022-10-31T19:52:12;138.70;;;44.10;;
5418;SDS011;2732;52.092;11.556;2022-10-31T19:57:12;220.57;;;46.90;;
5418;SDS011;2732;52.092;11.556;2022-10-31T20:02:13;272.57;;;36.03;;
5418;SDS011;2732;52.092;11.556;2022-10-31T20:07:18;331.30;;;41.77;;
5418;SDS011;2732;52.092;11.556;2022-10-31T20:12:19;330.07;;;43.17;;
5418;SDS011;2732;52.092;11.556;2022-10-31T20:17:20;284.47;;;64.87;;
5418;SDS011;2732;52.092;11.556;2022-10-31T20:22:20;200.07;;;35.40;;
5418;SDS011;2732;52.092;11.556;2022-10-31T20:27:21;272.87;;;43.10;;
5418;SDS011;2732;52.092;11.556;2022-10-31T20:32:22;137.47;;;32.67;;
5418;SDS011;2732;52.092;11.556;2022-10-31T20:37:22;122.87;;;33.10;;
5418;SDS011;2732;52.092;11.556;2022-10-31T20:42:23;97.93;;;33.67;;
5418;SDS011;2732;52.092;11.556;2022-10-31T20:47:24;90.57;;;32.73;;
5418;SDS011;2732;52.092;11.556;2022-10-31T20:52:25;190.13;;;32.20;;
5418;SDS011;2732;52.092;11.556;2022-10-31T20:57:25;187.20;;;34.17;;
5418;SDS011;2732;52.092;11.556;2022-10-31T21:02:26;74.70;;;31.67;;
5418;SDS011;2732;52.092;11.556;2022-10-31T21:07:29;80.50;;;29.10;;
5418;SDS011;2732;52.092;11.556;2022-10-31T21:12:30;79.30;;;28.70;;
5418;SDS011;2732;52.092;11.556;2022-10-31T21:17:30;82.80;;;28.63;;
5418;SDS011;2732;52.092;11.556;2022-10-31T21:22:31;176.07;;;29.83;;
5418;SDS011;2732;52.092;11.556;2022-10-31T21:27:32;94.47;;;28.90;;
5418;SDS011;2732;52.092;11.556;2022-10-31T21:32:33;69.00;;;29.60;;
5418;SDS011;2732;52.092;11.556;2022-10-31T21:37:34;52.33;;;28.40;;
5418;SDS011;2732;52.092;11.556;2022-10-31T21:42:35;62.77;;;26.97;;
5418;SDS011;2732;52.092;11.556;2022-10-31T21:47:35;52.17;;;28.23;;
5418;SDS011;2732;52.092;11.556;2022-10-31T21:52:36;110.63;;;29.60;;
5418;SDS011;2732;52.092;11.556;2022-10-31T21:57:37;65.43;;;29.00;;
5418;SDS011;2732;52.092;11.556;2022-10-31T22:02:37;69.60;;;29.20;;
5418;SDS011;2732;52.092;11.556;2022-10-31T22:07:38;74.33;;;29.67;;
5418;SDS011;2732;52.092;11.556;2022-10-31T22:12:39;142.87;;;30.40;;
5418;SDS011;2732;52.092;11.556;2022-10-31T22:17:39;147.63;;;31.97;;
5418;SDS011;2732;52.092;11.556;2022-10-31T22:22:40;127.00;;;31.20;;
5418;SDS011;2732;52.092;11.556;2022-10-31T22:27:41;190.73;;;32.40;;
5418;SDS011;2732;52.092;11.556;2022-10-31T22:32:41;130.93;;;31.13;;
5418;SDS011;2732;52.092;11.556;2022-10-31T22:37:42;82.77;;;31.90;;
5418;SDS011;2732;52.092;11.556;2022-10-31T22:42:43;111.90;;;33.53;;
5418;SDS011;2732;52.092;11.556;2022-10-31T22:47:43;75.77;;;34.50;;
5418;SDS011;2732;52.092;11.556;2022-10-31T22:52:44;67.13;;;32.90;;
5418;SDS011;2732;52.092;11.556;2022-10-31T22:57:45;69.70;;;35.13;;
5418;SDS011;2732;52.092;11.556;2022-10-31T23:02:45;62.50;;;32.93;;
5418;SDS011;2732;52.092;11.556;2022-10-31T23:07:46;56.30;;;31.67;;
5418;SDS011;2732;52.092;11.556;2022-10-31T23:12:46;65.17;;;31.83;;
5418;SDS011;2732;52.092;11.556;2022-10-31T23:18:05;70.00;;;36.90;;
5418;SDS011;2732;52.092;11.556;2022-10-31T23:23:06;71.37;;;34.07;;
5418;SDS011;2732;52.092;11.556;2022-10-31T23:28:07;78.83;;;35.77;;
5418;SDS011;2732;52.092;11.556;2022-10-31T23:33:07;72.53;;;37.70;;
5418;SDS011;2732;52.092;11.556;2022-10-31T23:38:08;73.27;;;35.33;;
5418;SDS011;2732;52.092;11.556;2022-10-31T23:43:09;83.27;;;38.17;;
5418;SDS011;2732;52.092;11.556;2022-10-31T23:48:10;104.00;;;37.47;;
5418;SDS011;2732;52.092;11.556;2022-10-31T23:53:10;85.83;;;34.40;;
5418;SDS011;2732;52.092;11.556;2022-10-31T23:58:11;86.00;;;34.67;;
